Time;durP1;ratioP1;P1;durP2;ratioP2;P2;SDS_P1;SDS_P2;PMS_P1;PMS_P2;Temp;Humidity;BMP_temperature;BMP_pressure;BME280_temperature;BME280_humidity;BME280_pressure;Samples;Min_cycle;Max_cycle;Signal;HPM_P1;HPM_P2
2023/05/15 00:02:39;;;;;;;10.45;9.45;;;23.00;85.00;;;;;;6258274;27;90087;-67
2023/05/15 00:05:41;;;;;;;10.23;9.25;;;23.00;85.00;;;;;;6279160;27;89130;-67
2023/05/15 00:08:44;;;;;;;10.13;9.15;;;23.00;85.00;;;;;;6280496;27;89181;-67
2023/05/15 00:11:46;;;;;;;10.70;9.70;;;23.00;85.10;;;;;;6265395;27;89017;-67
2023/05/15 00:14:49;;;;;;;10.07;9.07;;;23.00;85.10;;;;;;6284689;27;89098;-67
2023/05/15 00:17:51;;;;;;;10.43;9.40;;;22.90;85.00;;;;;;6276051;27;89156;-67
2023/05/15 00:20:53;;;;;;;10.18;9.27;;;22.90;85.10;;;;;;6284244;27;89131;-67
2023/05/15 00:23:57;;;;;;;10.70;9.70;;;22.90;85.10;;;;;;6286630;27;88320;-67
2023/05/15 00:27:00;;;;;;;10.32;9.32;;;22.90;85.10;;;;;;6285043;27;89393;-68
2023/05/15 00:30:04;;;;;;;10.25;9.25;;;23.00;85.10;;;;;;6283724;27;89123;-67
2023/05/15 00:33:06;;;;;;;10.20;9.20;;;22.90;84.90;;;;;;6286568;27;90170;-67
2023/05/15 00:36:09;;;;;;;9.68;8.75;;;22.90;84.90;;;;;;6290920;27;89052;-67
2023/05/15 00:39:11;;;;;;;9.70;8.80;;;22.90;85.00;;;;;;6296096;27;87942;-67
2023/05/15 00:42:14;;;;;;;10.10;9.20;;;22.90;85.00;;;;;;6262853;27;89036;-67
2023/05/15 00:45:18;;;;;;;10.48;9.48;;;22.90;85.00;;;;;;6233105;27;89098;-68
2023/05/15 00:48:21;;;;;;;9.60;8.65;;;22.90;85.00;;;;;;6247666;27;89141;-67
2023/05/15 00:51:23;;;;;;;10.43;9.32;;;22.80;84.90;;;;;;6266974;27;89198;-68
2023/05/15 00:54:25;;;;;;;9.68;8.77;;;22.90;85.00;;;;;;6257735;27;88368;-67
2023/05/15 00:57:27;;;;;;;9.68;8.77;;;22.80;85.00;;;;;;6258363;27;89200;-67
2023/05/15 01:00:32;;;;;;;9.50;8.60;;;22.80;85.00;;;;;;6243225;27;89311;-67
2023/05/15 01:03:34;;;;;;;9.30;8.40;;;22.80;85.00;;;;;;6250753;27;89997;-68
2023/05/15 01:06:37;;;;;;;9.70;8.80;;;22.90;84.90;;;;;;6240775;27;89129;-67
2023/05/15 01:09:41;;;;;;;10.07;9.07;;;22.90;84.90;;;;;;6231669;27;89060;-67
2023/05/15 01:12:46;;;;;;;9.55;8.65;;;22.90;84.90;;;;;;6239427;27;89183;-67
2023/05/15 01:15:50;;;;;;;9.15;8.35;;;22.80;84.90;;;;;;6266867;27;89943;-68
2023/05/15 01:18:52;;;;;;;9.38;8.48;;;22.80;84.90;;;;;;6230354;27;89331;-68
2023/05/15 01:22:29;;;;;;;9.40;8.50;;;22.80;84.90;;;;;;6245040;27;88562;-67
2023/05/15 01:26:11;;;;;;;8.80;7.95;;;22.80;84.90;;;;;;6255744;27;88588;-68
2023/05/15 01:29:20;;;;;;;9.50;8.55;;;22.80;84.90;;;;;;6255686;27;89104;-67
2023/05/15 01:32:29;;;;;;;8.63;7.78;;;22.80;85.00;;;;;;6238005;27;89122;-68
2023/05/15 01:35:35;;;;;;;8.50;7.70;;;22.80;85.00;;;;;;6243421;27;90609;-68
2023/05/15 01:38:40;;;;;;;8.88;7.97;;;22.80;85.00;;;;;;6257875;27;88185;-67
2023/05/15 01:41:46;;;;;;;8.93;8.02;;;22.80;84.90;;;;;;6258614;27;89230;-67
2023/05/15 01:44:54;;;;;;;8.70;7.90;;;22.80;84.90;;;;;;6271911;27;89087;-68
2023/05/15 01:47:58;;;;;;;8.80;8.00;;;22.80;84.90;;;;;;6278183;27;89100;-67
2023/05/15 01:51:03;;;;;;;8.73;7.93;;;22.80;84.90;;;;;;6287738;27;89184;-67
2023/05/15 01:54:08;;;;;;;8.85;8.02;;;22.80;84.90;;;;;;6289795;27;89091;-67
2023/05/15 01:57:11;;;;;;;8.15;7.40;;;22.70;84.90;;;;;;6283583;27;88312;-68
2023/05/15 02:00:16;;;;;;;8.35;7.55;;;22.80;84.90;;;;;;6278214;27;89098;-68
2023/05/15 02:03:19;;;;;;;8.02;7.32;;;22.70;84.90;;;;;;6290284;27;89098;-68
2023/05/15 02:06:22;;;;;;;9.32;8.18;;;22.70;84.90;;;;;;6286085;27;89907;-67
2023/05/15 02:09:25;;;;;;;8.18;7.38;;;22.70;84.90;;;;;;6267187;27;89211;-68
2023/05/15 02:12:28;;;;;;;8.02;7.32;;;22.70;84.90;;;;;;6279865;27;89230;-68
2023/05/15 02:15:32;;;;;;;8.68;7.78;;;22.70;84.90;;;;;;6280241;27;89042;-68
2023/05/15 02:18:34;;;;;;;8.07;7.28;;;22.70;84.70;;;;;;6278507;27;89020;-67
2023/05/15 02:21:36;;;;;;;7.93;7.13;;;22.70;84.70;;;;;;6282440;27;89059;-68
2023/05/15 02:24:38;;;;;;;8.30;7.50;;;22.80;84.90;;;;;;6287046;27;89059;-67
2023/05/15 02:27:47;;;;;;;8.32;7.53;;;22.70;84.80;;;;;;6282489;27;88406;-68
2023/05/15 02:30:55;;;;;;;7.72;6.97;;;22.70;84.80;;;;;;6278235;27;87983;-67
2023/05/15 02:34:10;;;;;;;7.90;7.20;;;22.70;84.90;;;;;;6278965;27;89104;-68
2023/05/15 02:37:17;;;;;;;8.07;7.28;;;22.70;84.90;;;;;;6259957;27;90114;-68
2023/05/15 02:40:20;;;;;;;7.68;6.97;;;22.70;84.90;;;;;;6261816;27;89657;-68
2023/05/15 02:43:22;;;;;;;7.50;6.80;;;22.70;84.90;;;;;;6239866;27;89556;-68
2023/05/15 02:46:26;;;;;;;8.40;7.50;;;22.70;84.80;;;;;;6257368;27;89187;-68
2023/05/15 02:49:28;;;;;;;7.72;6.97;;;22.70;84.90;;;;;;6261286;27;88023;-68
2023/05/15 02:52:31;;;;;;;7.30;6.60;;;22.70;84.80;;;;;;6266530;27;88010;-68
2023/05/15 02:55:33;;;;;;;7.85;7.07;;;22.70;84.70;;;;;;6259031;27;89106;-67
2023/05/15 02:58:36;;;;;;;8.20;7.40;;;22.70;84.70;;;;;;6272832;27;88233;-68
2023/05/15 03:01:39;;;;;;;7.60;6.88;;;22.70;84.70;;;;;;6253738;27;89140;-67
2023/05/15 03:04:41;;;;;;;7.50;6.80;;;22.70;84.80;;;;;;6245765;27;87956;-68
2023/05/15 03:07:43;;;;;;;7.40;6.70;;;22.70;84.80;;;;;;6250075;27;90060;-68
2023/05/15 03:10:45;;;;;;;7.40;6.70;;;22.70;84.80;;;;;;6250597;27;89572;-68
2023/05/15 03:13:47;;;;;;;7.80;7.00;;;22.60;84.70;;;;;;6257866;27;89126;-67
2023/05/15 03:16:51;;;;;;;7.45;6.75;;;22.60;84.70;;;;;;6235939;27;89050;-68
2023/05/15 03:19:53;;;;;;;7.63;6.93;;;22.60;84.70;;;;;;6233415;27;89060;-68
2023/05/15 03:22:55;;;;;;;7.55;6.85;;;22.60;84.70;;;;;;6257627;27;87747;-68
2023/05/15 03:25:57;;;;;;;7.93;7.13;;;22.60;84.70;;;;;;6256280;27;89112;-67
2023/05/15 03:28:59;;;;;;;7.35;6.65;;;22.60;84.70;;;;;;6255140;27;88657;-67
2023/05/15 03:32:02;;;;;;;8.23;7.43;;;22.60;84.60;;;;;;6237214;27;89134;-67
2023/05/15 03:35:05;;;;;;;7.35;6.65;;;22.70;84.70;;;;;;6248451;27;89106;-67
2023/05/15 03:38:07;;;;;;;7.35;6.65;;;22.60;84.40;;;;;;6232828;27;91076;-67
2023/05/15 03:41:09;;;;;;;7.07;6.47;;;22.60;84.40;;;;;;6284612;27;89059;-67
2023/05/15 03:44:11;;;;;;;7.50;6.80;;;22.60;84.40;;;;;;6286081;27;89067;-67
2023/05/15 03:47:14;;;;;;;7.60;6.90;;;22.60;84.40;;;;;;6276928;27;89191;-67
2023/05/15 03:50:16;;;;;;;7.07;6.47;;;22.60;84.40;;;;;;6280025;27;89120;-67
2023/05/15 03:53:18;;;;;;;7.20;6.50;;;22.60;84.40;;;;;;6277904;27;88089;-67
2023/05/15 03:56:20;;;;;;;7.53;6.80;;;22.60;84.40;;;;;;6260814;27;89152;-67
2023/05/15 03:59:22;;;;;;;7.47;6.82;;;22.60;84.30;;;;;;6283096;27;88882;-68
2023/05/15 04:02:26;;;;;;;7.78;7.07;;;22.60;84.40;;;;;;6309723;27;89046;-67
2023/05/15 04:05:27;;;;;;;7.53;6.82;;;22.70;84.30;;;;;;6272748;27;89027;-68
2023/05/15 04:08:29;;;;;;;7.68;6.97;;;22.70;84.30;;;;;;6277944;27;88890;-67
2023/05/15 04:11:33;;;;;;;7.05;6.45;;;22.70;84.20;;;;;;6264948;27;89298;-67
2023/05/15 04:14:35;;;;;;;7.50;6.80;;;22.70;84.20;;;;;;6279938;27;89240;-67
2023/05/15 04:17:38;;;;;;;7.35;6.65;;;22.70;84.10;;;;;;6303084;27;89714;-67
2023/05/15 04:20:40;;;;;;;7.43;6.72;;;22.70;84.00;;;;;;6288575;27;89104;-68
2023/05/15 04:23:42;;;;;;;6.93;6.22;;;22.70;84.00;;;;;;6285422;27;89026;-67
2023/05/15 04:26:44;;;;;;;7.47;6.78;;;22.80;84.00;;;;;;6281936;27;89733;-68
2023/05/15 04:29:46;;;;;;;7.07;6.38;;;22.80;84.00;;;;;;6283634;27;87285;-67
2023/05/15 04:32:50;;;;;;;7.05;6.45;;;22.80;83.90;;;;;;6287908;27;89181;-67
2023/05/15 04:35:52;;;;;;;6.65;6.05;;;22.80;83.90;;;;;;6284190;27;89092;-68
2023/05/15 04:38:54;;;;;;;7.03;6.43;;;22.80;83.80;;;;;;6292909;27;90283;-67
2023/05/15 04:41:56;;;;;;;6.88;6.28;;;22.80;83.80;;;;;;6284900;27;89238;-68
2023/05/15 04:44:58;;;;;;;7.70;6.90;;;22.80;83.80;;;;;;6263357;27;89048;-68
2023/05/15 04:48:02;;;;;;;7.10;6.40;;;22.80;83.70;;;;;;6263248;27;89685;-67
2023/05/15 04:51:04;;;;;;;6.68;6.07;;;22.90;83.80;;;;;;6282261;27;89161;-69
2023/05/15 04:54:06;;;;;;;7.35;6.65;;;22.80;83.80;;;;;;6290093;27;88290;-68
2023/05/15 04:57:09;;;;;;;8.10;7.30;;;22.90;84.90;;;;;;6271833;27;89076;-69
2023/05/15 05:00:12;;;;;;;7.85;6.80;;;22.90;87.60;;;;;;6274488;27;88327;-68
2023/05/15 05:03:15;;;;;;;7.63;6.93;;;23.00;86.40;;;;;;6278095;27;89577;-68
2023/05/15 05:06:17;;;;;;;7.93;7.20;;;23.00;85.70;;;;;;6281604;27;89093;-68
2023/05/15 05:09:20;;;;;;;8.35;7.25;;;23.10;85.40;;;;;;6277523;27;90032;-68
2023/05/15 05:12:22;;;;;;;7.75;7.05;;;23.10;85.00;;;;;;6289303;27;89113;-68
2023/05/15 05:15:23;;;;;;;8.40;7.60;;;23.10;84.80;;;;;;6289600;27;89125;-68
2023/05/15 05:18:27;;;;;;;8.20;7.40;;;23.20;84.90;;;;;;6256304;27;89668;-69
2023/05/15 05:21:29;;;;;;;7.70;7.00;;;23.20;84.80;;;;;;6289361;27;88901;-69
2023/05/15 05:24:31;;;;;;;7.85;7.07;;;23.20;84.70;;;;;;6281568;27;89105;-67
2023/05/15 05:27:33;;;;;;;7.18;6.57;;;23.20;84.70;;;;;;6273392;27;89288;-69
2023/05/15 05:30:36;;;;;;;8.38;7.40;;;23.20;84.90;;;;;;6287385;27;87665;-69
2023/05/15 05:33:39;;;;;;;8.10;7.30;;;23.20;84.70;;;;;;6267450;27;89449;-70
2023/05/15 05:36:41;;;;;;;7.68;6.93;;;23.20;84.60;;;;;;6266998;27;89114;-69
2023/05/15 05:39:43;;;;;;;7.95;7.15;;;23.20;84.50;;;;;;6260950;27;89904;-69
2023/05/15 05:42:45;;;;;;;7.30;6.60;;;23.10;84.40;;;;;;6269586;27;89163;-69
2023/05/15 05:45:47;;;;;;;7.63;6.93;;;23.10;84.40;;;;;;6271047;27;88245;-70
2023/05/15 05:48:51;;;;;;;7.63;6.93;;;23.20;84.40;;;;;;6271311;27;89062;-70
2023/05/15 05:51:53;;;;;;;8.13;7.32;;;23.10;84.30;;;;;;6274757;27;89145;-69
2023/05/15 05:54:55;;;;;;;7.32;6.63;;;23.20;84.30;;;;;;6269316;27;88052;-69
2023/05/15 05:57:57;;;;;;;8.70;7.50;;;23.20;84.30;;;;;;6259622;27;89197;-70
2023/05/15 06:00:59;;;;;;;7.25;6.55;;;23.20;84.20;;;;;;6271924;27;87563;-69
2023/05/15 06:04:03;;;;;;;7.40;6.70;;;23.20;84.20;;;;;;6260965;27;88363;-70
2023/05/15 06:07:05;;;;;;;7.43;6.72;;;23.20;84.20;;;;;;6263291;27;89067;-70
2023/05/15 06:10:08;;;;;;;7.15;6.47;;;23.20;84.10;;;;;;6270819;27;90067;-70
2023/05/15 06:13:10;;;;;;;7.47;6.78;;;23.20;84.20;;;;;;6257918;27;89095;-69
2023/05/15 06:16:12;;;;;;;7.47;6.78;;;23.20;84.10;;;;;;6256906;27;88206;-69
2023/05/15 06:19:15;;;;;;;7.30;6.43;;;23.20;84.20;;;;;;6271827;27;88261;-70
2023/05/15 06:22:17;;;;;;;7.35;6.65;;;23.20;84.20;;;;;;6262539;27;88106;-70
2023/05/15 06:25:19;;;;;;;7.18;6.47;;;23.20;84.10;;;;;;6289402;27;89020;-69
2023/05/15 06:28:21;;;;;;;7.15;6.45;;;23.20;84.00;;;;;;6256496;27;89090;-69
2023/05/15 06:31:23;;;;;;;7.25;6.60;;;23.30;84.10;;;;;;6267282;27;88305;-70
2023/05/15 06:34:27;;;;;;;7.70;6.90;;;23.20;84.00;;;;;;6260220;27;89575;-70
2023/05/15 06:37:29;;;;;;;7.10;6.40;;;23.20;84.00;;;;;;6260338;27;89081;-70
2023/05/15 06:40:31;;;;;;;6.85;6.20;;;23.20;84.00;;;;;;6266924;27;90042;-69
2023/05/15 06:43:33;;;;;;;7.43;6.72;;;23.20;84.00;;;;;;6280542;27;89104;-70
2023/05/15 06:46:35;;;;;;;7.30;6.60;;;23.30;84.00;;;;;;6262987;27;89117;-70
2023/05/15 06:49:38;;;;;;;6.75;6.07;;;23.30;84.10;;;;;;6271496;27;89027;-70
2023/05/15 06:52:40;;;;;;;6.93;6.32;;;23.30;84.10;;;;;;6274453;27;90006;-70
2023/05/15 06:55:42;;;;;;;6.68;6.07;;;23.20;84.00;;;;;;6277006;27;88012;-70
2023/05/15 06:58:44;;;;;;;6.75;6.05;;;23.30;84.10;;;;;;6284010;27;89861;-70
2023/05/15 07:01:46;;;;;;;7.03;6.32;;;23.30;84.00;;;;;;6286787;27;88225;-70
2023/05/15 07:04:50;;;;;;;6.95;6.35;;;23.30;84.00;;;;;;6283288;27;89071;-70
2023/05/15 07:07:52;;;;;;;6.78;6.18;;;23.30;84.00;;;;;;6265672;27;89207;-69
2023/05/15 07:10:54;;;;;;;6.70;6.10;;;23.30;84.00;;;;;;6280032;27;90016;-69
2023/05/15 07:13:56;;;;;;;7.40;6.40;;;23.30;84.00;;;;;;6284845;27;87956;-69
2023/05/15 07:16:58;;;;;;;6.95;6.20;;;23.30;84.00;;;;;;6268399;27;89672;-69
2023/05/15 07:20:04;;;;;;;6.70;6.10;;;23.30;84.00;;;;;;6264209;27;89432;-70
2023/05/15 07:23:06;;;;;;;6.20;5.63;;;23.30;84.00;;;;;;6263868;27;89299;-70
2023/05/15 07:26:08;;;;;;;6.47;5.88;;;23.30;84.00;;;;;;6288421;27;88003;-71
2023/05/15 07:29:10;;;;;;;6.70;6.07;;;23.30;85.00;;;;;;6264283;27;87968;-71
2023/05/15 07:32:12;;;;;;;6.97;6.28;;;23.30;84.20;;;;;;6263353;27;88687;-71
2023/05/15 07:35:17;;;;;;;6.70;6.10;;;23.30;84.20;;;;;;6283931;27;89172;-68
2023/05/15 07:38:19;;;;;;;6.97;6.28;;;23.30;84.30;;;;;;6269341;27;88051;-70
2023/05/15 07:41:21;;;;;;;7.47;6.30;;;23.30;84.30;;;;;;6293995;27;89986;-71
2023/05/15 07:44:22;;;;;;;7.65;6.47;;;23.30;84.40;;;;;;6273867;27;89015;-70
2023/05/15 07:47:25;;;;;;;7.07;6.38;;;23.30;84.40;;;;;;6271500;27;87998;-72
2023/05/15 07:50:28;;;;;;;5.95;5.35;;;23.30;84.50;;;;;;6296151;27;88978;-71
2023/05/15 07:53:32;;;;;;;6.32;5.72;;;23.40;84.40;;;;;;6270076;27;91178;-71
2023/05/15 07:56:34;;;;;;;6.75;6.13;;;23.40;84.40;;;;;;6292788;27;88833;-71
2023/05/15 07:59:36;;;;;;;6.47;5.88;;;23.40;84.40;;;;;;6267114;27;89081;-71
2023/05/15 08:02:38;;;;;;;6.50;5.90;;;23.40;84.20;;;;;;6279403;27;88337;-71
2023/05/15 08:05:41;;;;;;;7.57;6.65;;;23.30;84.10;;;;;;6281816;27;88025;-71
2023/05/15 08:08:43;;;;;;;12.75;6.00;;;23.40;84.20;;;;;;6268812;27;89060;-71
2023/05/15 08:11:45;;;;;;;6.53;5.95;;;23.40;84.20;;;;;;6263922;27;90093;-73
2023/05/15 08:14:49;;;;;;;9.70;7.60;;;23.40;84.20;;;;;;6285145;27;89493;-72
2023/05/15 08:17:51;;;;;;;104.82;24.92;;;23.40;84.40;;;;;;6303614;27;89124;-72
2023/05/15 08:20:54;;;;;;;48.90;17.65;;;23.40;92.70;;;;;;6285953;27;89071;-71
2023/05/15 08:23:56;;;;;;;242.82;48.50;;;23.40;91.00;;;;;;6278438;27;89252;-69
2023/05/15 08:26:58;;;;;;;72.85;22.20;;;23.50;96.90;;;;;;6266471;27;89119;-69
2023/05/15 08:30:01;;;;;;;54.78;17.90;;;23.60;99.90;;;;;;6278363;27;89057;-69
2023/05/15 08:33:03;;;;;;;44.55;16.40;;;23.70;99.90;;;;;;6284139;27;88747;-70
2023/05/15 08:36:07;;;;;;;38.53;14.52;;;23.70;99.90;;;;;;6271981;27;90166;-74
2023/05/15 08:39:09;;;;;;;37.60;15.43;;;23.90;99.90;;;;;;6261119;27;89089;-71
2023/05/15 08:42:18;;;;;;;34.40;14.00;;;23.90;99.90;;;;;;6269872;27;90073;-74
2023/05/15 08:45:21;;;;;;;28.77;13.38;;;24.00;99.90;;;;;;6277178;27;89134;-74
2023/05/15 08:48:29;;;;;;;31.80;13.65;;;24.00;95.70;;;;;;6270810;27;88298;-74
2023/05/15 08:51:32;;;;;;;28.17;13.20;;;24.10;93.00;;;;;;6275054;27;89169;-74
2023/05/15 08:54:35;;;;;;;30.42;14.23;;;24.10;92.20;;;;;;6276861;27;89086;-75
2023/05/15 08:57:37;;;;;;;32.30;14.07;;;24.10;92.40;;;;;;6281815;27;89197;-75
2023/05/15 09:00:39;;;;;;;28.42;13.95;;;24.20;92.50;;;;;;6283488;27;89335;-75
2023/05/15 09:03:41;;;;;;;34.17;14.18;;;24.20;92.50;;;;;;6267582;27;88346;-74
2023/05/15 09:06:47;;;;;;;28.17;12.63;;;24.30;99.90;;;;;;6277077;27;89075;-72
2023/05/15 09:09:50;;;;;;;27.05;12.05;;;24.40;94.60;;;;;;6265612;27;89008;-72
2023/05/15 09:12:53;;;;;;;22.85;11.20;;;24.40;92.00;;;;;;6266813;27;90231;-72
2023/05/15 09:15:55;;;;;;;24.05;11.15;;;24.40;91.20;;;;;;6268134;27;87994;-71
2023/05/15 09:19:00;;;;;;;25.13;10.93;;;24.40;93.70;;;;;;6266573;27;88027;-73
2023/05/15 09:22:16;;;;;;;25.20;12.25;;;24.50;91.20;;;;;;6262508;27;89321;-74
2023/05/15 09:25:33;;;;;;;21.25;10.68;;;24.40;90.40;;;;;;6267165;27;89036;-73
2023/05/15 09:28:35;;;;;;;23.02;11.55;;;24.30;90.10;;;;;;6260493;27;89087;-73
2023/05/15 09:31:37;;;;;;;21.60;10.68;;;24.30;90.00;;;;;;6266509;27;89431;-72
2023/05/15 09:34:41;;;;;;;20.25;9.65;;;24.30;89.60;;;;;;6274784;27;88355;-73
2023/05/15 09:37:44;;;;;;;18.42;9.80;;;24.20;89.10;;;;;;6268630;27;89319;-72
2023/05/15 09:40:46;;;;;;;19.20;9.80;;;24.20;88.90;;;;;;6259964;27;89001;-73
2023/05/15 09:43:48;;;;;;;17.33;10.10;;;24.10;88.80;;;;;;6275733;27;90036;-72
2023/05/15 09:46:50;;;;;;;17.95;9.63;;;24.10;88.50;;;;;;6280359;27;88076;-73
2023/05/15 09:49:52;;;;;;;18.85;10.23;;;24.10;88.30;;;;;;6277490;27;89178;-73
2023/05/15 09:52:59;;;;;;;18.60;10.18;;;24.00;87.90;;;;;;6280080;27;89104;-72
2023/05/15 09:56:02;;;;;;;17.65;9.82;;;24.00;87.90;;;;;;6278565;27;89147;-73
2023/05/15 09:59:04;;;;;;;18.45;9.88;;;24.00;87.70;;;;;;6255129;27;89150;-73
2023/05/15 10:02:07;;;;;;;15.85;8.98;;;24.00;87.70;;;;;;6279835;27;88314;-73
2023/05/15 10:05:12;;;;;;;15.77;9.02;;;24.00;87.40;;;;;;6272015;27;87962;-72
2023/05/15 10:08:25;;;;;;;14.15;9.02;;;23.90;87.30;;;;;;6275985;27;89481;-72
2023/05/15 10:11:29;;;;;;;14.02;9.00;;;23.90;87.20;;;;;;6270766;27;89041;-73
2023/05/15 10:14:31;;;;;;;12.95;8.55;;;23.90;87.00;;;;;;6283098;27;90064;-72
2023/05/15 10:17:35;;;;;;;13.52;8.38;;;23.90;86.80;;;;;;6278199;27;89087;-72
2023/05/15 10:20:38;;;;;;;15.45;8.70;;;23.90;86.80;;;;;;6273034;27;87958;-72
2023/05/15 10:23:42;;;;;;;14.48;8.57;;;23.90;86.70;;;;;;6284111;27;88143;-73
2023/05/15 10:26:44;;;;;;;14.25;8.30;;;23.90;86.70;;;;;;6278646;27;91649;-73
2023/05/15 10:29:47;;;;;;;12.75;8.40;;;23.90;86.60;;;;;;6257137;27;89084;-72
2023/05/15 10:32:49;;;;;;;11.90;7.88;;;23.90;87.20;;;;;;6270778;27;89071;-72
2023/05/15 10:35:52;;;;;;;14.80;7.80;;;23.90;86.20;;;;;;6258958;27;88380;-73
2023/05/15 10:38:58;;;;;;;11.60;7.85;;;23.80;86.00;;;;;;6260701;27;89075;-72
2023/05/15 10:42:00;;;;;;;14.05;8.18;;;23.90;86.00;;;;;;6276977;27;89170;-72
2023/05/15 10:45:02;;;;;;;13.25;8.05;;;23.90;86.00;;;;;;6285721;27;89967;-73
2023/05/15 10:48:06;;;;;;;13.13;7.88;;;23.80;85.90;;;;;;6276890;27;89469;-73
2023/05/15 10:51:16;;;;;;;12.98;7.55;;;23.80;85.90;;;;;;6300272;27;89148;-72
2023/05/15 10:54:22;;;;;;;13.68;7.70;;;23.80;85.70;;;;;;6292000;27;88428;-73
2023/05/15 10:57:24;;;;;;;10.82;7.20;;;23.80;85.60;;;;;;6269243;27;89036;-73
2023/05/15 11:00:27;;;;;;;11.75;7.55;;;23.80;85.50;;;;;;6277465;27;89273;-72
2023/05/15 11:03:36;;;;;;;11.43;7.43;;;23.80;85.40;;;;;;6276940;27;89122;-73
2023/05/15 11:06:40;;;;;;;10.48;6.82;;;23.80;85.40;;;;;;6266413;27;88350;-73
2023/05/15 11:09:43;;;;;;;11.50;7.05;;;23.80;85.30;;;;;;6288315;27;89131;-73
2023/05/15 11:12:58;;;;;;;9.98;6.53;;;23.80;85.20;;;;;;6293928;27;89111;-73
2023/05/15 11:16:00;;;;;;;11.55;7.43;;;23.90;85.30;;;;;;6269295;27;90127;-73
2023/05/15 11:19:02;;;;;;;10.65;6.57;;;23.80;85.20;;;;;;6267539;27;89018;-74
2023/05/15 11:22:17;;;;;;;10.13;6.68;;;23.80;85.20;;;;;;6282444;27;89240;-73
2023/05/15 11:25:29;;;;;;;10.05;6.63;;;23.80;85.20;;;;;;6297481;27;89066;-73
2023/05/15 11:28:40;;;;;;;9.32;6.35;;;23.80;85.00;;;;;;6261223;27;89261;-73
2023/05/15 11:31:42;;;;;;;9.65;6.40;;;23.80;85.00;;;;;;6267727;27;89066;-72
2023/05/15 11:34:44;;;;;;;9.23;6.30;;;23.70;84.90;;;;;;6256744;27;89560;-74
2023/05/15 11:37:49;;;;;;;8.57;6.20;;;23.70;84.90;;;;;;6280356;27;88431;-72
2023/05/15 11:40:54;;;;;;;10.70;6.22;;;23.70;84.80;;;;;;6277535;27;91521;-73
2023/05/15 11:43:57;;;;;;;8.88;5.97;;;23.70;84.80;;;;;;6284765;27;89200;-73
2023/05/15 11:46:59;;;;;;;8.40;6.05;;;23.70;84.80;;;;;;6280672;27;90050;-73
2023/05/15 11:50:01;;;;;;;8.02;5.80;;;23.70;84.80;;;;;;6291965;27;89092;-73
2023/05/15 11:53:05;;;;;;;8.85;5.97;;;23.70;84.80;;;;;;6279542;27;88929;-73
2023/05/15 11:56:13;;;;;;;10.57;6.18;;;23.70;84.90;;;;;;6275742;27;89006;-73
2023/05/15 11:59:15;;;;;;;8.27;6.15;;;23.70;84.90;;;;;;6268761;27;90400;-73
2023/05/15 12:02:17;;;;;;;9.45;6.13;;;23.70;84.70;;;;;;6282143;27;88996;-74
2023/05/15 12:05:19;;;;;;;8.25;5.65;;;23.70;84.70;;;;;;6280590;27;89122;-74
2023/05/15 12:08:22;;;;;;;7.40;5.43;;;23.70;84.70;;;;;;6266771;27;88819;-73
2023/05/15 12:11:25;;;;;;;7.47;5.40;;;23.70;84.70;;;;;;6260592;27;87929;-73
2023/05/15 12:14:28;;;;;;;7.70;5.80;;;23.70;84.70;;;;;;6287095;27;89075;-73
2023/05/15 12:17:31;;;;;;;7.95;5.70;;;23.70;84.70;;;;;;6261381;27;89941;-73
2023/05/15 12:20:34;;;;;;;6.47;5.20;;;23.70;84.60;;;;;;6263592;27;88986;-73
2023/05/15 12:23:36;;;;;;;7.15;5.55;;;23.70;84.60;;;;;;6286870;27;89214;-73
2023/05/15 12:26:40;;;;;;;8.88;5.85;;;23.70;84.70;;;;;;6270614;27;90461;-74
2023/05/15 12:29:43;;;;;;;7.32;5.43;;;23.70;84.70;;;;;;6261237;27;89203;-73
2023/05/15 12:32:45;;;;;;;6.75;5.10;;;23.70;84.70;;;;;;6268518;27;89091;-73
2023/05/15 12:35:53;;;;;;;7.35;5.68;;;23.70;84.70;;;;;;6272051;27;89003;-73
2023/05/15 12:38:55;;;;;;;7.63;5.15;;;23.70;84.70;;;;;;6275090;27;88378;-73
2023/05/15 12:42:00;;;;;;;7.20;5.57;;;23.70;84.80;;;;;;6268333;27;89012;-72
2023/05/15 12:45:02;;;;;;;6.20;5.25;;;23.70;84.80;;;;;;6275440;27;89074;-73
2023/05/15 12:48:04;;;;;;;7.82;5.82;;;23.70;84.80;;;;;;6276329;27;90024;-73
2023/05/15 12:51:07;;;;;;;6.53;5.20;;;23.70;84.70;;;;;;6261061;27;89055;-73
2023/05/15 12:54:17;;;;;;;6.80;5.32;;;23.70;84.70;;;;;;6281683;27;89374;-72
2023/05/15 12:57:20;;;;;;;6.32;5.10;;;23.70;84.70;;;;;;6281069;27;89833;-73
2023/05/15 13:00:22;;;;;;;7.68;5.40;;;23.70;84.80;;;;;;6268660;27;89095;-73
2023/05/15 13:03:26;;;;;;;7.03;5.13;;;23.70;84.70;;;;;;6277084;27;89096;-73
2023/05/15 13:06:28;;;;;;;8.20;5.20;;;23.70;84.80;;;;;;6274984;27;89333;-73
2023/05/15 13:09:32;;;;;;;5.18;4.55;;;23.60;84.70;;;;;;6276233;27;88307;-72
2023/05/15 13:12:40;;;;;;;5.78;4.63;;;23.60;84.70;;;;;;6267558;27;89036;-72
2023/05/15 13:15:44;;;;;;;6.82;5.22;;;23.70;84.90;;;;;;6274953;27;89218;-73
2023/05/15 13:18:46;;;;;;;7.25;5.13;;;23.70;84.80;;;;;;6272065;27;88940;-73
2023/05/15 13:21:49;;;;;;;5.82;4.50;;;23.70;84.90;;;;;;6260151;27;87924;-73
2023/05/15 13:24:53;;;;;;;5.63;4.47;;;23.60;84.70;;;;;;6281576;27;89053;-73
2023/05/15 13:27:58;;;;;;;5.72;4.63;;;23.60;84.70;;;;;;6278716;27;89424;-73
2023/05/15 13:31:01;;;;;;;5.53;4.22;;;23.60;84.80;;;;;;6279520;27;89019;-73
2023/05/15 13:34:02;;;;;;;5.38;4.45;;;23.60;84.80;;;;;;6276262;27;89061;-73
2023/05/15 13:37:05;;;;;;;5.95;4.60;;;23.60;84.80;;;;;;6280594;27;89314;-73
2023/05/15 13:40:09;;;;;;;6.35;4.78;;;23.60;84.80;;;;;;6266780;27;88391;-72
2023/05/15 13:43:13;;;;;;;6.93;4.90;;;23.60;84.70;;;;;;6269761;27;89123;-73
2023/05/15 13:46:15;;;;;;;5.85;4.43;;;23.60;84.70;;;;;;6257852;27;89301;-74
2023/05/15 13:49:17;;;;;;;5.45;4.18;;;23.60;84.70;;;;;;6265109;27;90028;-74
2023/05/15 13:52:19;;;;;;;5.35;4.50;;;23.60;84.70;;;;;;6277752;27;89096;-74
2023/05/15 13:55:21;;;;;;;5.28;4.47;;;23.60;84.70;;;;;;6285227;27;89013;-74
2023/05/15 13:58:25;;;;;;;4.32;3.70;;;23.60;84.70;;;;;;6280714;27;89062;-74
2023/05/15 14:01:27;;;;;;;5.13;4.07;;;23.60;84.70;;;;;;6277680;27;89435;-73
2023/05/15 14:04:29;;;;;;;5.90;4.05;;;23.60;84.70;;;;;;6273272;27;89035;-74
2023/05/15 14:07:31;;;;;;;5.22;4.28;;;23.60;84.60;;;;;;6268515;27;89124;-73
2023/05/15 14:10:33;;;;;;;6.10;4.22;;;23.60;84.60;;;;;;6286501;27;88649;-74
2023/05/15 14:13:37;;;;;;;5.90;4.47;;;23.60;84.50;;;;;;6300580;27;89109;-73
2023/05/15 14:16:39;;;;;;;4.82;4.00;;;23.60;84.60;;;;;;6267169;27;89322;-73
2023/05/15 14:19:41;;;;;;;4.68;4.10;;;23.60;84.70;;;;;;6265750;27;90037;-73
2023/05/15 14:22:43;;;;;;;5.85;4.30;;;23.60;84.70;;;;;;6259161;27;89389;-73
2023/05/15 14:25:45;;;;;;;4.40;4.00;;;23.60;84.60;;;;;;6268472;27;88255;-74
2023/05/15 14:28:48;;;;;;;4.65;4.05;;;23.60;84.60;;;;;;6267413;27;89062;-74
2023/05/15 14:31:50;;;;;;;4.50;3.65;;;23.60;84.60;;;;;;6268426;27;89430;-74
2023/05/15 14:34:52;;;;;;;4.63;4.10;;;23.60;84.60;;;;;;6290169;27;89234;-74
2023/05/15 14:37:54;;;;;;;5.63;4.40;;;23.60;85.00;;;;;;6271766;27;89109;-73
2023/05/15 14:40:56;;;;;;;4.80;4.03;;;23.60;84.70;;;;;;6291649;27;88358;-73
2023/05/15 14:43:59;;;;;;;4.00;3.60;;;23.60;84.70;;;;;;6268143;27;88021;-74
2023/05/15 14:47:09;;;;;;;4.93;3.90;;;23.60;84.70;;;;;;6251945;27;89261;-73
2023/05/15 14:50:11;;;;;;;4.30;3.78;;;23.50;84.70;;;;;;6257070;27;90150;-74
2023/05/15 14:53:12;;;;;;;4.22;3.83;;;23.60;84.70;;;;;;6276582;27;88072;-74
2023/05/15 14:56:15;;;;;;;4.47;3.90;;;23.60;84.70;;;;;;6278556;27;89052;-75
2023/05/15 14:59:18;;;;;;;4.43;3.80;;;23.60;84.70;;;;;;6265203;27;89099;-73
2023/05/15 15:02:20;;;;;;;5.72;4.43;;;23.60;84.70;;;;;;6290659;27;89066;-73
2023/05/15 15:05:22;;;;;;;4.13;3.72;;;23.60;84.70;;;;;;6267762;27;87948;-74
2023/05/15 15:08:25;;;;;;;4.15;3.60;;;23.60;84.60;;;;;;6265534;27;89169;-73
2023/05/15 15:11:27;;;;;;;4.03;3.63;;;23.60;84.60;;;;;;6256490;27;87621;-74
2023/05/15 15:14:31;;;;;;;3.83;3.47;;;23.60;84.70;;;;;;6270411;27;89088;-73
2023/05/15 15:17:33;;;;;;;4.00;3.60;;;23.50;84.60;;;;;;6267643;27;89533;-73
2023/05/15 15:20:35;;;;;;;4.20;3.75;;;23.50;84.60;;;;;;6270997;27;89900;-74
2023/05/15 15:23:37;;;;;;;3.63;3.33;;;23.60;84.70;;;;;;6282525;27;89505;-73
2023/05/15 15:26:40;;;;;;;4.32;3.70;;;23.60;84.70;;;;;;6275265;27;89089;-70
2023/05/15 15:29:43;;;;;;;4.68;3.70;;;23.60;84.70;;;;;;6278839;27;89503;-69
2023/05/15 15:32:45;;;;;;;4.70;3.80;;;23.50;84.80;;;;;;6270067;27;89110;-70
2023/05/15 15:35:47;;;;;;;4.32;3.47;;;23.60;85.00;;;;;;6273798;27;89268;-71
2023/05/15 15:38:49;;;;;;;4.22;3.63;;;23.50;85.10;;;;;;6288231;27;88641;-70
2023/05/15 15:41:51;;;;;;;5.00;3.50;;;23.60;85.10;;;;;;6279557;27;88296;-70
2023/05/15 15:44:55;;;;;;;3.85;3.35;;;23.60;85.00;;;;;;6271502;27;89326;-71
2023/05/15 15:47:57;;;;;;;3.72;3.30;;;23.60;84.90;;;;;;6267629;27;88379;-72
2023/05/15 15:50:59;;;;;;;3.78;3.45;;;23.60;84.90;;;;;;6274517;27;89973;-71